createdAt,value
2023-03-23T15:58:27.056Z,10.65
2023-03-23T16:00:55.584Z,10.85
2023-03-23T16:03:30.224Z,11.57
2023-03-23T16:06:00.581Z,11.80
2023-03-23T16:08:33.224Z,12.00
2023-03-23T16:11:03.582Z,10.27
2023-03-23T16:13:31.288Z,12.30
2023-03-23T16:15:59.403Z,11.05
2023-03-23T16:18:31.770Z,8.98
2023-03-23T16:21:00.229Z,10.43
2023-03-23T16:23:30.188Z,10.23
2023-03-23T16:25:58.071Z,10.20
2023-03-23T16:28:26.284Z,7.82
2023-03-23T16:30:56.616Z,9.77
2023-03-23T16:33:27.639Z,8.35
2023-03-23T16:35:58.692Z,10.07
2023-03-23T16:38:27.525Z,8.77
2023-03-23T16:40:56.350Z,10.85
2023-03-23T16:43:24.848Z,10.18
2023-03-23T16:45:57.363Z,10.75
2023-03-23T16:48:27.151Z,9.85
2023-03-23T16:50:58.334Z,8.57
2023-03-23T16:54:20.392Z,9.95
2023-03-23T16:56:51.323Z,7.35
2023-03-23T16:59:19.720Z,7.80
2023-03-23T17:11:31.410Z,5.97
2023-03-23T17:14:03.287Z,5.60
2023-03-23T17:25:27.333Z,7.15
2023-03-23T17:28:47.850Z,7.85
2023-03-23T17:40:37.516Z,7.00
2023-03-23T17:47:38.655Z,9.05
2023-03-23T18:03:56.968Z,8.18
2023-03-23T18:12:08.230Z,7.30
2023-03-23T18:14:47.798Z,8.88
2023-03-23T18:17:25.784Z,8.77
2023-03-23T18:30:18.186Z,9.52
2023-03-23T18:33:01.810Z,7.93
2023-03-23T18:35:31.351Z,10.48
2023-03-23T18:38:25.522Z,9.60
2023-03-23T18:43:25.479Z,8.20
2023-03-23T18:46:21.142Z,9.95
2023-03-23T18:48:59.916Z,8.23
2023-03-23T18:51:38.403Z,9.30
2023-03-23T18:58:40.834Z,8.80
2023-03-23T19:01:15.204Z,10.02
2023-03-23T19:08:38.686Z,11.43
2023-03-23T19:11:08.595Z,9.77
2023-03-23T19:13:38.823Z,11.18
2023-03-23T19:16:18.052Z,12.00
2023-03-23T19:18:46.132Z,12.13
2023-03-23T19:21:19.770Z,12.65
2023-03-23T19:24:16.828Z,11.75
2023-03-23T19:39:49.592Z,11.52
2023-03-23T19:42:18.686Z,11.38
2023-03-23T19:44:50.813Z,10.68
2023-03-23T19:47:23.125Z,9.85
2023-03-23T19:49:55.105Z,11.43
2023-03-23T19:52:25.046Z,9.05
2023-03-23T19:59:27.569Z,10.50
2023-03-23T20:01:55.997Z,10.60
2023-03-23T20:04:27.428Z,8.85
2023-03-23T20:06:57.171Z,9.10
2023-03-23T20:10:03.136Z,8.52
2023-03-23T20:12:37.196Z,9.43
2023-03-23T20:17:57.759Z,8.70
2023-03-23T20:20:30.775Z,9.93
2023-03-23T20:23:08.070Z,7.63
2023-03-23T20:25:36.945Z,10.07
2023-03-23T20:28:18.181Z,9.55
2023-03-23T20:31:16.322Z,9.25
2023-03-23T20:35:38.071Z,7.55
2023-03-23T20:38:08.544Z,7.60
2023-03-23T20:40:44.822Z,8.15
2023-03-23T20:43:16.538Z,9.20
2023-03-23T20:45:46.458Z,8.20
2023-03-23T20:48:19.040Z,11.25
2023-03-23T20:51:23.191Z,14.02
2023-03-23T20:53:58.707Z,11.23
2023-03-23T20:56:42.889Z,11.60
2023-03-23T20:59:13.716Z,10.10
2023-03-23T21:01:47.082Z,11.07
2023-03-23T21:04:21.629Z,11.73
2023-03-23T21:10:59.057Z,11.40
2023-03-23T21:18:55.176Z,10.75
2023-03-23T21:22:12.560Z,9.27
2023-03-23T21:25:11.821Z,11.25
2023-03-23T21:28:01.024Z,10.82
2023-03-23T21:30:43.187Z,10.70
2023-03-23T21:33:27.002Z,10.25
2023-03-23T21:36:05.228Z,10.98
2023-03-23T21:38:44.606Z,11.50
2023-03-23T21:41:41.819Z,10.38
2023-03-23T21:44:26.290Z,10.55
2023-03-23T21:47:20.780Z,10.38
2023-03-23T21:50:20.474Z,11.05
2023-03-23T21:53:05.073Z,13.00
2023-03-23T21:55:42.459Z,11.45
2023-03-23T22:13:23.356Z,13.00
2023-03-23T22:15:58.158Z,12.93
2023-03-23T22:18:27.738Z,15.32
2023-03-23T22:21:00.018Z,11.82
2023-03-23T22:24:14.641Z,12.88
2023-03-23T22:26:47.702Z,11.98
2023-03-23T22:29:17.482Z,12.80
2023-03-23T22:31:49.497Z,11.98
2023-03-23T22:34:20.692Z,13.07
2023-03-23T22:52:14.548Z,12.35
2023-03-23T22:54:41.349Z,11.55
2023-03-23T22:57:22.680Z,10.35
2023-03-23T23:00:00.547Z,10.60
2023-03-23T23:03:06.723Z,12.93
2023-03-23T23:05:53.196Z,12.80
2023-03-23T23:08:53.114Z,11.93
2023-03-23T23:11:39.932Z,13.23
2023-03-23T23:14:20.409Z,13.00
2023-03-23T23:16:55.384Z,12.73
2023-03-23T23:19:27.329Z,13.82
2023-03-23T23:21:55.970Z,14.88
2023-03-23T23:24:27.984Z,12.77
2023-03-23T23:26:56.355Z,13.75
2023-03-23T23:29:25.823Z,13.73
2023-03-23T23:32:00.852Z,13.82
2023-03-23T23:34:39.294Z,14.25
2023-03-23T23:37:40.251Z,13.63
2023-03-23T23:40:16.891Z,16.20
2023-03-23T23:42:49.255Z,13.48
2023-03-23T23:45:20.687Z,13.43
2023-03-23T23:47:49.532Z,13.82
2023-03-23T23:50:23.964Z,11.95
2023-03-23T23:52:55.665Z,14.05
2023-03-23T23:55:25.925Z,13.32
